Smithville, Arkansas
Current Conditions -  °F | °C
As of 2:35 AM on Friday 19 Dec 2014 (Local Time) from KARG Reporting Station
Overcast Overcast  
Wind Chill: 31°   Ceiling: 4200
Heat Index: 37°   Visibility: 5mi
Dew Point: 34°   Wind: 8mph
Humidity: 87%   Direction: 30°NNE
Pressure: 30.24"   Gusts: NA
Location:  36.08°N, 91.3°W
Report Text: KARG 190835Z AUTO 03007KT 5SM FEW008 OVC042 03/01 A3024 RMK AO1
Loading
Personal Weather Stations






























Interactive Weather Map New forecast layout! Learn more

10-Day Weather Forecast

Advertisements
Track Severe Weather on mobile